createdAt,value
2018-09-13T00:01:32.638Z,4.70
2018-09-13T00:04:01.197Z,1.47
2018-09-13T00:06:29.793Z,1.57
2018-09-13T00:08:58.379Z,2.07
2018-09-13T00:11:26.969Z,3.23
2018-09-13T00:13:55.521Z,2.63
2018-09-13T00:16:24.137Z,1.40
2018-09-13T00:18:52.700Z,2.17
2018-09-13T00:21:21.282Z,2.40
2018-09-13T00:23:49.829Z,2.23
2018-09-13T00:26:18.433Z,2.57
2018-09-13T00:28:47.027Z,3.47
2018-09-13T00:31:15.622Z,5.10
2018-09-13T00:33:44.464Z,3.43
2018-09-13T00:36:13.281Z,3.97
2018-09-13T00:38:41.891Z,4.70
2018-09-13T00:41:10.469Z,4.00
2018-09-13T00:43:39.039Z,2.07
2018-09-13T00:46:07.617Z,2.20
2018-09-13T00:48:36.177Z,4.00
2018-09-13T00:51:04.744Z,3.80
2018-09-13T00:53:33.324Z,6.13
2018-09-13T00:56:01.884Z,7.10
2018-09-13T00:58:30.469Z,6.63
2018-09-13T01:00:59.033Z,5.93
2018-09-13T01:03:27.641Z,3.70
2018-09-13T01:05:56.210Z,4.43
2018-09-13T01:08:24.783Z,7.70
2018-09-13T01:10:53.364Z,9.00
2018-09-13T01:13:21.949Z,4.73
2018-09-13T01:15:50.577Z,3.97
2018-09-13T01:18:19.166Z,3.90
2018-09-13T01:20:47.754Z,9.40
2018-09-13T01:23:16.336Z,9.17
2018-09-13T01:25:44.897Z,4.80
2018-09-13T01:28:13.497Z,4.97
2018-09-13T01:30:42.086Z,7.40
2018-09-13T01:33:10.668Z,4.17
2018-09-13T01:35:39.220Z,4.03
2018-09-13T01:38:07.801Z,7.90
2018-09-13T01:40:36.345Z,5.83
2018-09-13T01:43:04.959Z,5.13
2018-09-13T01:45:33.525Z,6.40
2018-09-13T01:48:02.107Z,7.20
2018-09-13T01:50:30.664Z,7.77
2018-09-13T01:52:59.250Z,5.30
2018-09-13T01:55:27.830Z,7.50
2018-09-13T01:57:56.413Z,3.97
2018-09-13T02:00:24.972Z,4.30
2018-09-13T02:02:53.604Z,4.23
2018-09-13T02:05:22.182Z,5.10
2018-09-13T02:07:50.804Z,9.10
2018-09-13T02:10:19.377Z,7.23
2018-09-13T02:12:47.958Z,13.93
2018-09-13T02:15:16.542Z,8.73
2018-09-13T02:17:45.201Z,6.37
2018-09-13T02:20:13.804Z,6.87
2018-09-13T02:22:42.394Z,4.37
2018-09-13T02:25:10.965Z,5.20
2018-09-13T02:27:39.569Z,5.97
2018-09-13T02:30:08.158Z,6.13
2018-09-13T02:32:36.754Z,3.80
2018-09-13T02:35:05.359Z,10.70
2018-09-13T02:37:33.982Z,8.10
2018-09-13T02:40:02.567Z,11.07
2018-09-13T02:42:31.218Z,5.00
2018-09-13T02:44:59.776Z,4.90
2018-09-13T02:47:28.353Z,7.53
2018-09-13T02:49:56.917Z,7.10
2018-09-13T02:52:25.518Z,9.27
2018-09-13T02:54:54.080Z,6.83
2018-09-13T02:57:22.649Z,6.33
2018-09-13T02:59:51.256Z,6.00
2018-09-13T03:02:19.813Z,6.70
2018-09-13T03:04:48.403Z,5.40
2018-09-13T03:07:16.981Z,7.33
2018-09-13T03:09:45.577Z,5.70
2018-09-13T03:12:14.160Z,9.30
2018-09-13T03:14:42.735Z,5.97
2018-09-13T03:17:11.331Z,4.90
2018-09-13T03:19:39.915Z,3.37
2018-09-13T03:22:08.493Z,4.30
2018-09-13T03:24:37.093Z,6.27
2018-09-13T03:27:05.660Z,6.23
2018-09-13T03:29:34.293Z,6.10
2018-09-13T03:32:02.878Z,5.30
2018-09-13T03:34:31.452Z,5.40
2018-09-13T03:37:00.026Z,3.83
2018-09-13T03:39:28.605Z,5.27
2018-09-13T03:41:57.276Z,23.23
2018-09-13T03:44:25.874Z,18.13
2018-09-13T03:46:54.456Z,13.57
2018-09-13T03:49:23.045Z,8.70
2018-09-13T03:51:51.622Z,5.77
2018-09-13T03:54:20.211Z,6.67
2018-09-13T03:56:48.778Z,6.90
2018-09-13T03:59:17.418Z,9.23
2018-09-13T04:01:46.004Z,7.20
2018-09-13T04:04:14.642Z,6.20
2018-09-13T04:06:43.216Z,7.67
2018-09-13T04:09:12.617Z,9.40
2018-09-13T04:11:41.567Z,8.20
2018-09-13T04:14:10.240Z,10.80
2018-09-13T04:16:38.820Z,56.20
2018-09-13T04:19:07.430Z,98.67
2018-09-13T04:21:35.991Z,26.73
2018-09-13T04:24:04.594Z,13.70
2018-09-13T04:26:33.169Z,8.47
2018-09-13T04:29:01.759Z,7.80
2018-09-13T04:31:30.324Z,6.90
2018-09-13T04:33:58.903Z,5.10
2018-09-13T04:36:27.465Z,5.93
2018-09-13T04:38:56.068Z,8.43
2018-09-13T04:41:24.622Z,6.10
2018-09-13T04:43:53.283Z,14.80
2018-09-13T04:46:21.869Z,13.57
2018-09-13T04:48:50.469Z,10.50
2018-09-13T04:51:19.052Z,10.30
2018-09-13T04:53:47.670Z,6.17
2018-09-13T04:56:16.281Z,9.83
2018-09-13T04:58:44.900Z,5.73
2018-09-13T05:01:13.496Z,113.70
2018-09-13T05:03:42.073Z,228.13
2018-09-13T05:06:10.671Z,106.20
2018-09-13T05:08:39.273Z,108.77
2018-09-13T05:11:07.854Z,83.47
2018-09-13T05:13:36.421Z,79.27
2018-09-13T05:16:05.037Z,178.00
2018-09-13T05:18:33.605Z,21.37
2018-09-13T05:21:02.196Z,44.50
2018-09-13T05:23:30.761Z,47.37
2018-09-13T05:25:59.359Z,68.00
2018-09-13T05:28:27.924Z,58.83
2018-09-13T05:30:56.511Z,60.13
2018-09-13T05:33:25.152Z,129.80
2018-09-13T05:35:53.763Z,99.80
2018-09-13T05:38:22.326Z,48.47
2018-09-13T05:40:50.924Z,101.13
2018-09-13T05:43:19.557Z,52.63
2018-09-13T05:45:48.190Z,37.13
2018-09-13T05:48:16.768Z,73.10
2018-09-13T05:50:45.579Z,28.23
2018-09-13T05:53:14.158Z,43.40
2018-09-13T05:55:42.774Z,35.30
2018-09-13T05:58:11.345Z,12.40
2018-09-13T06:00:39.945Z,36.17
2018-09-13T06:03:08.545Z,24.37
2018-09-13T06:05:37.139Z,11.93
2018-09-13T06:08:05.771Z,12.07
2018-09-13T06:10:34.410Z,12.93
2018-09-13T06:13:02.994Z,14.30
2018-09-13T06:15:31.586Z,24.47
2018-09-13T06:18:00.168Z,24.37
2018-09-13T06:20:28.837Z,32.00
2018-09-13T06:22:57.420Z,97.47
2018-09-13T06:25:26.008Z,54.10
2018-09-13T06:27:54.568Z,72.20
2018-09-13T06:30:23.173Z,66.67
2018-09-13T06:32:51.757Z,49.30
2018-09-13T06:35:20.346Z,44.73
2018-09-13T06:37:48.925Z,42.40
2018-09-13T06:40:17.532Z,11.60
2018-09-13T06:42:46.127Z,18.97
2018-09-13T06:45:14.738Z,18.73
2018-09-13T06:47:43.322Z,41.33
2018-09-13T06:50:11.931Z,33.17
2018-09-13T06:52:40.520Z,20.30
2018-09-13T06:55:09.154Z,22.33
2018-09-13T06:57:37.729Z,9.63
2018-09-13T07:00:06.651Z,34.30
2018-09-13T07:02:35.314Z,37.90
2018-09-13T07:05:03.885Z,9.10
2018-09-13T07:07:32.533Z,25.10
2018-09-13T07:10:01.103Z,73.93
2018-09-13T07:12:29.697Z,104.63
2018-09-13T07:14:58.266Z,133.90
2018-09-13T07:17:26.861Z,90.27
2018-09-13T07:19:55.482Z,51.67
2018-09-13T07:22:24.240Z,37.03
2018-09-13T07:24:52.836Z,77.70
2018-09-13T07:27:21.430Z,37.57
2018-09-13T07:29:49.989Z,19.97
2018-09-13T07:32:18.591Z,25.23
2018-09-13T07:34:47.162Z,24.07
2018-09-13T07:37:15.761Z,13.23
2018-09-13T07:39:44.373Z,13.80
2018-09-13T07:42:13.005Z,9.97
2018-09-13T07:44:41.608Z,14.23
2018-09-13T07:47:10.254Z,13.60
2018-09-13T07:49:38.935Z,7.90
2018-09-13T07:52:07.464Z,8.43
2018-09-13T07:54:36.038Z,10.77
2018-09-13T07:57:04.641Z,7.50
2018-09-13T07:59:33.294Z,8.80
2018-09-13T08:02:01.923Z,9.80
2018-09-13T08:04:30.512Z,8.03
2018-09-13T08:06:59.114Z,12.57
2018-09-13T08:09:27.678Z,7.43
2018-09-13T08:11:56.327Z,6.23
2018-09-13T08:14:24.866Z,7.30
2018-09-13T08:16:53.473Z,7.07
2018-09-13T08:19:22.038Z,7.77
2018-09-13T08:21:50.746Z,2.63
2018-09-13T08:24:19.281Z,3.70
2018-09-13T08:26:47.864Z,5.27
2018-09-13T08:29:16.426Z,8.73
2018-09-13T08:31:45.004Z,5.73
2018-09-13T08:34:13.602Z,3.73
2018-09-13T08:36:42.172Z,3.90
2018-09-13T08:39:12.017Z,5.17
2018-09-13T08:41:40.678Z,7.60
2018-09-13T08:44:09.244Z,3.30
2018-09-13T08:46:37.850Z,10.10
2018-09-13T08:49:06.433Z,4.00
2018-09-13T08:51:35.027Z,5.70
2018-09-13T08:54:03.814Z,4.50
2018-09-13T08:56:32.403Z,5.63
2018-09-13T08:59:00.961Z,5.33
2018-09-13T09:01:29.613Z,3.93
2018-09-13T09:03:58.179Z,3.70
2018-09-13T09:06:26.790Z,6.10
2018-09-13T09:08:55.386Z,4.43
2018-09-13T09:11:23.945Z,8.63
2018-09-13T09:13:52.557Z,4.50
2018-09-13T09:16:21.135Z,4.97
2018-09-13T09:18:49.725Z,4.50
2018-09-13T09:21:18.313Z,4.30
2018-09-13T09:23:46.921Z,9.03
2018-09-13T09:26:15.514Z,9.63
2018-09-13T09:28:45.168Z,4.43
2018-09-13T09:31:13.713Z,30.20
2018-09-13T09:33:42.437Z,14.43
2018-09-13T09:36:11.006Z,5.27
2018-09-13T09:38:39.902Z,4.90
2018-09-13T09:41:08.473Z,3.60
2018-09-13T09:43:37.094Z,3.23
2018-09-13T09:46:05.691Z,5.23
2018-09-13T09:48:34.412Z,6.40
2018-09-13T09:51:02.986Z,5.63
2018-09-13T09:53:31.587Z,1.77
2018-09-13T09:56:00.193Z,6.60
2018-09-13T09:58:29.125Z,7.10
2018-09-13T10:01:02.780Z,9.03
2018-09-13T10:03:31.446Z,3.97
2018-09-13T10:06:00.041Z,10.30
2018-09-13T10:08:28.620Z,5.90
2018-09-13T10:10:57.184Z,6.00
2018-09-13T10:13:25.782Z,28.80
2018-09-13T10:15:59.622Z,5.13
2018-09-13T10:18:33.572Z,6.33
2018-09-13T10:21:07.421Z,5.20
2018-09-13T10:23:41.324Z,6.33
2018-09-13T10:26:15.212Z,5.00
2018-09-13T10:28:49.156Z,12.07
2018-09-13T10:31:23.027Z,5.70
2018-09-13T10:33:56.912Z,5.93
2018-09-13T10:36:30.682Z,5.77
2018-09-13T10:39:04.624Z,6.97
2018-09-13T10:41:38.443Z,4.17
2018-09-13T10:44:12.384Z,3.97
2018-09-13T10:46:40.962Z,6.17
2018-09-13T10:51:20.357Z,6.43
2018-09-13T10:53:53.163Z,3.93
2018-09-13T10:56:21.735Z,97.63
2018-09-13T10:58:50.595Z,4.10
2018-09-13T11:01:19.304Z,4.33
2018-09-13T11:03:47.906Z,3.33
2018-09-13T11:06:16.530Z,5.17
2018-09-13T11:08:45.165Z,6.43
2018-09-13T11:11:13.738Z,7.23
2018-09-13T11:13:46.343Z,12.37
2018-09-13T11:16:14.981Z,7.20
2018-09-13T11:18:43.553Z,5.63
2018-09-13T11:21:12.165Z,11.73
2018-09-13T11:23:40.798Z,12.80
2018-09-13T11:26:09.398Z,21.83
2018-09-13T11:28:38.069Z,18.93
2018-09-13T11:31:06.684Z,6.63
2018-09-13T11:33:35.578Z,15.23
2018-09-13T11:36:04.181Z,4.73
2018-09-13T11:38:32.773Z,5.07
2018-09-13T11:41:01.824Z,4.60
2018-09-13T11:43:30.178Z,8.40
2018-09-13T11:45:58.794Z,10.57
2018-09-13T11:48:27.374Z,5.23
2018-09-13T11:50:55.983Z,10.30
2018-09-13T11:53:24.556Z,92.87
2018-09-13T11:55:53.160Z,8.00
2018-09-13T11:58:21.706Z,11.73
2018-09-13T12:00:50.588Z,87.57
2018-09-13T12:03:19.168Z,57.00
2018-09-13T12:05:47.775Z,6.47
2018-09-13T12:08:16.347Z,26.87
2018-09-13T12:10:44.939Z,67.10
2018-09-13T12:13:13.583Z,40.93
2018-09-13T12:15:42.176Z,26.37
2018-09-13T12:18:10.749Z,6.03
2018-09-13T12:20:39.375Z,8.13
2018-09-13T12:23:07.941Z,8.43
2018-09-13T12:25:36.537Z,5.50
2018-09-13T12:28:05.484Z,6.83
2018-09-13T12:30:34.088Z,7.20
2018-09-13T12:33:02.753Z,4.97
2018-09-13T12:35:31.369Z,11.70
2018-09-13T12:37:59.966Z,3.50
2018-09-13T12:40:28.556Z,4.17
2018-09-13T12:42:57.117Z,3.43
2018-09-13T12:45:25.748Z,3.67
2018-09-13T12:47:55.143Z,4.07
2018-09-13T12:50:23.767Z,5.40
2018-09-13T12:52:52.332Z,2.70
2018-09-13T12:55:20.962Z,4.07
2018-09-13T12:57:49.539Z,3.60
2018-09-13T13:00:18.211Z,2.60
2018-09-13T13:02:46.791Z,3.60
2018-09-13T13:05:15.419Z,4.07
2018-09-13T13:07:43.998Z,6.30
2018-09-13T13:10:12.641Z,3.53
2018-09-13T13:12:41.239Z,4.27
2018-09-13T13:15:09.871Z,6.20
2018-09-13T13:17:38.451Z,5.53
2018-09-13T13:20:07.113Z,4.27
2018-09-13T13:22:35.723Z,5.73
2018-09-13T13:25:04.318Z,3.80
2018-09-13T13:27:33.393Z,8.60
2018-09-13T13:30:02.345Z,4.13
2018-09-13T13:32:30.934Z,7.67
2018-09-13T13:34:59.500Z,7.47
2018-09-13T13:37:28.098Z,2.67
2018-09-13T13:39:56.697Z,5.80
2018-09-13T13:42:25.280Z,5.63
2018-09-13T13:44:53.846Z,4.17
2018-09-13T13:47:22.454Z,4.90
2018-09-13T13:49:51.026Z,5.90
2018-09-13T13:52:19.611Z,3.50
2018-09-13T13:54:48.180Z,5.47
2018-09-13T13:57:16.768Z,6.50
2018-09-13T13:59:45.368Z,4.10
2018-09-13T14:02:13.960Z,4.80
2018-09-13T14:04:42.538Z,2.73
2018-09-13T14:07:11.130Z,4.63
2018-09-13T14:09:39.703Z,4.63
2018-09-13T14:12:08.321Z,4.20
2018-09-13T14:14:36.880Z,5.20
2018-09-13T14:17:05.560Z,5.60
2018-09-13T14:19:34.112Z,5.67
2018-09-13T14:22:02.701Z,3.60
2018-09-13T14:24:31.275Z,2.90
2018-09-13T14:26:59.860Z,7.10
2018-09-13T14:29:28.463Z,3.57
2018-09-13T14:31:57.065Z,4.00
2018-09-13T14:34:25.673Z,2.63
2018-09-13T14:36:54.290Z,4.83
2018-09-13T14:39:22.882Z,5.93
2018-09-13T14:41:51.477Z,2.00
2018-09-13T14:44:20.049Z,9.20
2018-09-13T14:46:48.643Z,8.73
2018-09-13T14:49:17.217Z,3.43
2018-09-13T14:51:45.890Z,4.93
2018-09-13T14:54:14.493Z,5.20
2018-09-13T14:56:43.112Z,5.70
2018-09-13T14:59:11.702Z,7.03
2018-09-13T15:01:40.308Z,4.20
2018-09-13T15:04:08.895Z,6.23
2018-09-13T15:06:37.557Z,5.00
2018-09-13T15:09:09.181Z,4.73
2018-09-13T15:11:37.796Z,5.10
2018-09-13T15:14:06.425Z,2.63
2018-09-13T15:16:35.024Z,5.83
2018-09-13T15:19:03.620Z,6.47
2018-09-13T15:21:32.229Z,5.40
2018-09-13T15:24:00.829Z,4.97
2018-09-13T15:26:30.002Z,3.33
2018-09-13T15:28:58.630Z,6.20
2018-09-13T15:31:27.244Z,9.30
2018-09-13T15:33:55.850Z,7.07
2018-09-13T15:36:24.443Z,5.10
2018-09-13T15:38:53.042Z,4.27
2018-09-13T15:41:21.628Z,11.03
2018-09-13T15:43:50.365Z,2.90
2018-09-13T15:46:18.928Z,7.47
2018-09-13T15:48:47.505Z,9.17
2018-09-13T15:51:16.079Z,6.73
2018-09-13T15:53:44.686Z,5.67
2018-09-13T15:56:13.333Z,5.70
2018-09-13T15:58:41.977Z,8.93
2018-09-13T16:01:10.593Z,2.33
2018-09-13T16:03:39.216Z,4.03
2018-09-13T16:06:07.812Z,7.80
2018-09-13T16:08:36.406Z,3.63
2018-09-13T16:11:05.006Z,5.60
2018-09-13T16:13:33.601Z,5.50
2018-09-13T16:16:02.167Z,4.37
2018-09-13T16:18:30.757Z,6.50
2018-09-13T16:20:59.401Z,5.80
2018-09-13T16:23:27.945Z,4.30
2018-09-13T16:25:56.529Z,6.43
2018-09-13T16:28:25.153Z,4.13
2018-09-13T16:30:53.730Z,7.23
2018-09-13T16:33:22.334Z,5.30
2018-09-13T16:35:53.175Z,5.17
2018-09-13T16:38:30.130Z,6.80
2018-09-13T16:41:04.902Z,9.27
2018-09-13T16:43:38.860Z,5.27
2018-09-13T16:46:09.907Z,5.47
2018-09-13T16:48:42.988Z,4.80
2018-09-13T16:51:11.956Z,6.93
2018-09-13T16:53:40.579Z,4.10
2018-09-13T16:56:09.334Z,5.90
2018-09-13T16:58:37.933Z,8.70
2018-09-13T17:01:06.575Z,4.73
2018-09-13T17:03:35.182Z,8.73
2018-09-13T17:06:03.770Z,5.47
2018-09-13T17:08:32.418Z,6.10
2018-09-13T17:11:01.019Z,4.97
2018-09-13T17:13:29.645Z,3.80
2018-09-13T17:15:58.239Z,5.17
2018-09-13T17:18:26.833Z,4.00
2018-09-13T17:20:55.405Z,2.20
2018-09-13T17:23:24.032Z,5.77
2018-09-13T17:25:52.618Z,8.93
2018-09-13T17:28:21.232Z,12.13
2018-09-13T17:30:50.136Z,6.37
2018-09-13T17:33:18.712Z,4.00
2018-09-13T17:35:47.309Z,8.40
2018-09-13T17:38:15.852Z,5.40
2018-09-13T17:40:44.438Z,6.43
2018-09-13T17:43:13.012Z,6.50
2018-09-13T17:45:41.632Z,6.20
2018-09-13T17:48:10.265Z,7.97
2018-09-13T17:50:38.839Z,4.03
2018-09-13T17:53:07.466Z,13.27
2018-09-13T17:55:36.055Z,5.60
2018-09-13T17:58:05.291Z,6.87
2018-09-13T18:00:33.885Z,12.13
2018-09-13T18:03:02.496Z,23.23
2018-09-13T18:05:31.084Z,10.90
2018-09-13T18:07:59.659Z,14.60
2018-09-13T18:10:28.246Z,4.40
2018-09-13T18:12:56.865Z,5.33
2018-09-13T18:15:25.437Z,6.50
2018-09-13T18:17:53.985Z,7.57
2018-09-13T18:20:22.584Z,6.57
2018-09-13T18:22:51.170Z,10.43
2018-09-13T18:25:19.748Z,4.73
2018-09-13T18:27:48.319Z,3.97
2018-09-13T18:30:16.985Z,6.50
2018-09-13T18:32:45.505Z,7.33
2018-09-13T18:35:14.110Z,10.60
2018-09-13T18:37:42.678Z,8.93
2018-09-13T18:40:11.274Z,12.70
2018-09-13T18:42:39.883Z,6.43
2018-09-13T18:45:08.514Z,6.87
2018-09-13T18:47:37.071Z,4.40
2018-09-13T18:50:05.662Z,5.77
2018-09-13T18:52:34.277Z,13.33
2018-09-13T18:55:02.856Z,3.90
2018-09-13T18:57:31.417Z,4.10
2018-09-13T18:59:59.993Z,6.93
2018-09-13T19:02:28.551Z,4.87
2018-09-13T19:04:57.214Z,11.93
2018-09-13T19:07:25.765Z,8.57
2018-09-13T19:09:54.352Z,5.87
2018-09-13T19:12:22.904Z,3.80
2018-09-13T19:14:51.509Z,5.33
2018-09-13T19:17:20.178Z,7.97
2018-09-13T19:19:48.693Z,8.90
2018-09-13T19:22:17.270Z,13.30
2018-09-13T19:24:45.845Z,4.83
2018-09-13T19:27:14.415Z,5.60
2018-09-13T19:29:43.026Z,6.33
2018-09-13T19:32:11.584Z,8.17
2018-09-13T19:34:40.191Z,8.83
2018-09-13T19:37:08.757Z,7.17
2018-09-13T19:39:37.372Z,12.97
2018-09-13T19:42:05.982Z,6.73
2018-09-13T19:44:34.546Z,7.23
2018-09-13T19:47:03.140Z,5.87
2018-09-13T19:49:31.720Z,5.70
2018-09-13T19:52:00.293Z,3.63
2018-09-13T19:54:28.863Z,10.83
2018-09-13T19:56:57.439Z,7.43
2018-09-13T19:59:25.996Z,8.00
2018-09-13T20:01:54.574Z,7.50
2018-09-13T20:04:23.141Z,5.87
2018-09-13T20:06:51.736Z,6.17
2018-09-13T20:09:20.303Z,26.37
2018-09-13T20:11:48.926Z,10.63
2018-09-13T20:14:17.552Z,8.20
2018-09-13T20:16:46.200Z,7.93
2018-09-13T20:19:14.795Z,10.33
2018-09-13T20:21:43.371Z,7.37
2018-09-13T20:24:11.926Z,8.83
2018-09-13T20:26:40.505Z,11.80
2018-09-13T20:29:09.096Z,12.30
2018-09-13T20:31:37.699Z,10.20
2018-09-13T20:34:06.348Z,7.70
2018-09-13T20:36:34.953Z,10.40
2018-09-13T20:39:04.196Z,6.83
2018-09-13T20:41:32.760Z,7.53
2018-09-13T20:44:01.351Z,7.47
2018-09-13T20:46:29.961Z,10.73
2018-09-13T20:48:58.577Z,7.30
2018-09-13T20:51:27.181Z,5.23
2018-09-13T20:53:55.768Z,12.10
2018-09-13T20:56:24.373Z,10.03
2018-09-13T20:58:52.966Z,11.13
2018-09-13T21:01:21.581Z,15.37
2018-09-13T21:03:50.153Z,5.53
2018-09-13T21:06:18.739Z,11.70
2018-09-13T21:08:47.316Z,7.50
2018-09-13T21:11:15.924Z,4.43
2018-09-13T21:13:44.496Z,9.63
2018-09-13T21:16:13.111Z,7.07
2018-09-13T21:18:41.708Z,5.77
2018-09-13T21:21:10.313Z,8.20
2018-09-13T21:23:38.896Z,7.00
2018-09-13T21:26:07.621Z,13.57
2018-09-13T21:28:36.272Z,5.23
2018-09-13T21:31:04.981Z,7.23
2018-09-13T21:33:33.950Z,12.80
2018-09-13T21:36:02.547Z,7.60
2018-09-13T21:38:31.243Z,7.17
2018-09-13T21:40:59.847Z,5.10
2018-09-13T21:43:28.452Z,8.43
2018-09-13T21:45:57.024Z,5.70
2018-09-13T21:48:25.676Z,10.30
2018-09-13T21:50:54.261Z,13.20
2018-09-13T21:53:22.866Z,5.67
2018-09-13T21:55:51.455Z,5.93
2018-09-13T21:58:20.083Z,9.70
2018-09-13T22:00:48.682Z,10.23
2018-09-13T22:03:17.273Z,9.00
2018-09-13T22:05:45.839Z,9.50
2018-09-13T22:08:14.430Z,8.33
2018-09-13T22:10:43.008Z,6.80
2018-09-13T22:13:11.610Z,13.93
2018-09-13T22:15:40.242Z,8.20
2018-09-13T22:18:08.823Z,7.30
2018-09-13T22:20:37.467Z,4.60
2018-09-13T22:23:06.071Z,6.60
2018-09-13T22:25:34.647Z,4.53
2018-09-13T22:28:03.235Z,4.30
2018-09-13T22:30:31.830Z,7.30
2018-09-13T22:33:00.430Z,7.97
2018-09-13T22:35:29.000Z,5.20
2018-09-13T22:37:58.049Z,5.47
2018-09-13T22:40:26.629Z,7.30
2018-09-13T22:42:55.232Z,22.03
2018-09-13T22:45:23.808Z,7.03
2018-09-13T22:47:52.398Z,7.77
2018-09-13T22:50:20.976Z,5.90
2018-09-13T22:52:49.573Z,7.97
2018-09-13T22:55:18.162Z,14.67
2018-09-13T22:57:46.780Z,7.50
2018-09-13T23:00:15.364Z,11.50
2018-09-13T23:02:47.900Z,14.97
2018-09-13T23:05:17.189Z,11.73
2018-09-13T23:07:46.099Z,5.43
2018-09-13T23:10:14.766Z,7.00
2018-09-13T23:12:43.347Z,9.03
2018-09-13T23:15:11.937Z,7.07
2018-09-13T23:17:40.588Z,3.93
2018-09-13T23:20:09.273Z,4.77
2018-09-13T23:22:37.848Z,6.97
2018-09-13T23:25:06.480Z,4.60
2018-09-13T23:27:35.092Z,3.03
2018-09-13T23:30:03.730Z,7.70
2018-09-13T23:32:32.318Z,7.33
2018-09-13T23:35:00.900Z,3.33
2018-09-13T23:37:29.493Z,8.70
2018-09-13T23:39:58.344Z,8.60
2018-09-13T23:42:26.668Z,10.10
2018-09-13T23:44:55.274Z,2.30
2018-09-13T23:47:23.847Z,2.70
2018-09-13T23:49:52.448Z,4.73
2018-09-13T23:52:21.015Z,4.63
2018-09-13T23:54:49.615Z,1.90
2018-09-13T23:57:18.178Z,1.20
2018-09-13T23:59:46.765Z,1.20
